Tiempo atmosférico en la estación meteorológica de Rasquera, Tarragona (186 m.)



Fecha
DESCASC
Temp. máxima en grados centígrados (hora)
DESCASC
Temp. mínima en grados centígrados (hora)
DESCASC
Temp. media en grados centígrados
DESCASC
Racha de viento máxima en m/sg (hora)
DESCASC
Velocidad máxima media en intervalos de 10 minutos(hora)
DESCASC
Precipitaciones diarias en mm
DESCASC
Precipitaciones de 00:00 a 06:00 en mm
DESCASC
Precipitaciones de 06:00 a 12:00 en mm
DESCASC
Precipitaciones de 12:00 a 18:00 en mm
DESCASC
Precipitaciones de 18:00 a 24:00 en mm
DESCASC
24-09-2020 27.8 (13:00) 15.6 (04:30) 21.7 9.17 (14:00) 5 (14:00) 0.8 0 0 0.8 0
23-09-2020 29.7 (15:10) 12.9 (00:00) 21.3 6.67 (16:40) 3.89 (16:20) 0 0 0 0 0
22-09-2020 28.3 (15:10) 14.7 (00:00) 21.5 8.06 (15:50) 4.17 (15:50) 0 0 0 0 0
21-09-2020 28.2 (15:40) 17.8 (00:00) 23 8.89 (17:10) 4.72 (13:00) 0 0 0 0 0
20-09-2020 28.7 (15:50) 15.9 (00:00) 22.3 10.56 (16:00) 5 (13:00) 0 0 0 0 0
19-09-2020 29.1 (14:40) 17.5 (00:00) 23.3 7.22 (16:30) 4.17 (16:20) 0 0 0 0 0
18-09-2020 24.8 (13:30) 19.1 (00:00) 21.9 10 (14:40) 5.83 (14:30) 5.4 0 5.4 0 0
17-09-2020 29.5 (15:50) 17.6 (00:00) 23.6 10 (16:40) 5.28 (16:30) 0 0 0 0 0
16-09-2020 31.9 (14:00) 20 (07:50) 25.9 9.44 (16:00) 5.28 (17:40) 0 0 0 0 0
15-09-2020 31.9 (14:00) 19.9 (00:00) 25.9 10 (15:50) 5.28 (15:40) 0 0 0 0 0
14-09-2020 31.4 (13:30) 15.5 (00:00) 23.4 10.28 (17:20) 5 (16:30) 0 0 0 0 0
13-09-2020 34.2 (14:10) 14.4 (00:00) 24.3 10 (14:50) 5.83 (15:20) 0 0 0 0 0
12-09-2020 33.2 (15:30) 15.4 (07:20) 24.3 9.44 (16:20) 5.28 (16:50) 0 0 0 0 0
11-09-2020 32.9 (16:50) 16.6 (00:00) 24.8 8.89 (19:20) 5 (19:10) 0 0 0 0 0
10-09-2020 30.9 (16:50) 16.5 (00:00) 23.7 7.78 (13:20) 4.72 (17:50) 0 0 0 0 0
09-09-2020 26.6 (16:40) 16.6 (03:00) 21.6 9.17 (17:50) 5.28 (17:50) 0.4 0.2 0.2 0 0
08-09-2020 28.5 (16:00) 13.7 (00:00) 21.1 8.33 (01:20) 5 (01:20) 0 0 0 0 0
07-09-2020 28.1 (16:50) 17.4 (23:40) 22.8 12.22 (01:20) 6.39 (05:10) 0 0 0 0 0
06-09-2020 30.6 (16:00) 19.5 (00:00) 25.1 8.89 (12:30) 5.28 (13:20) 0 0 0 0 0
05-09-2020 30.4 (13:30) 16.2 (00:00) 23.3 9.72 (19:40) 5.28 (18:40) 0 0 0 0 0
04-09-2020 29.9 (14:50) 14.3 (00:00) 22.1 10.28 (15:20) 5.83 (17:10) 0 0 0 0 0
03-09-2020 30.9 (15:10) 12 (00:00) 21.4 10.56 (17:40) 5.83 (17:40) 0 0 0 0 0
02-09-2020 29.9 (15:20) 15.1 (00:00) 22.5 10.83 (17:10) 5.28 (17:00) 0 0 0 0 0
01-09-2020 28.7 (15:20) 12.1 (00:00) 20.4 7.78 (16:40) 4.72 (17:30) 0 0 0 0 0
31-08-2020 28.7 (17:00) 15.4 (00:00) 22.1 9.44 (12:00) 5.56 (12:00) 0 0 0 0 0
30-08-2020 25.6 (16:30) 15.7 (00:00) 20.7 14.17 (04:50) 7.78 (03:50) 0 0 0 0 0
29-08-2020 26.4 (17:00) 18.8 (00:00) 22.6 15.83 (23:10) 7.5 (22:40) 0 0 0 0 0
28-08-2020 30.6 (14:50) 22.1 (00:00) 26.4 10.83 (22:50) 5.28 (22:20) 1 0 0 0 1

Gráficas

Temp. máximas Temp. mínimas Temp. medias Precipitaciones Rachas de viento máximas Velocidades máximas media en intervalos de 10 minutos

Datos horarios

Fecha y hora oficial Temperatura (ºC) Velocidad del viento (km/h) Dirección del viento Racha (km/h) Dirección de racha Precipitación (mm) Presión (hPa) Tendencia (hPa) Humedad (%)
2020-09-26 23:00:00 20.8 20 Oeste 45 Oeste 0 -- -- 45
2020-09-26 22:00:00 20.2 15 Oeste 37 Oeste 0 -- -- 47
2020-09-26 21:00:00 20.2 12 Oeste 27 Oeste 0 -- -- 48
2020-09-26 20:00:00 20.4 13 Oeste 31 Oeste 0 -- -- 46
2020-09-26 19:00:00 21.1 17 Oeste 55 Oeste 0 -- -- 44
2020-09-26 18:00:00 22.2 23 Oeste 59 Oeste 0 -- -- 42
2020-09-26 17:00:00 21.4 24 Oeste 55 Oeste 0 -- -- 43
2020-09-26 16:00:00 22.5 17 Oeste 52 Noroeste 0 -- -- 40
2020-09-26 15:00:00 21.9 24 Oeste 57 Noroeste 0 -- -- 41
2020-09-26 14:00:00 20.4 24 Noroeste 67 Noroeste 0 -- -- 45
2020-09-26 13:00:00 20 23 Oeste 46 Noroeste 0 -- -- 45
2020-09-26 12:00:00 19 24 Noroeste 63 Oeste 0 -- -- 46
2020-09-26 11:00:00 17.8 24 Oeste 54 Oeste 0 -- -- 49
2020-09-26 10:00:00 15.9 15 Oeste 57 Oeste 0 -- -- 53
2020-09-26 09:00:00 14.4 18 Oeste 62 Oeste 0 -- -- 58
2020-09-26 08:00:00 14.1 26 Oeste 59 Noroeste 0 -- -- 58
2020-09-26 07:00:00 14.1 27 Oeste 71 Oeste 0 -- -- 58
2020-09-26 06:00:00 14.1 31 Oeste 65 Sudoeste 0 -- -- 58
2020-09-26 05:00:00 14.3 24 Oeste 66 Sudoeste 0 -- -- 57
2020-09-26 04:00:00 14.3 31 Oeste 71 Oeste 0 -- -- 57
2020-09-26 03:00:00 14.3 30 Oeste 71 Oeste 0 -- -- 57
2020-09-26 02:00:00 14.7 33 Oeste 67 Oeste 0 -- -- 55
2020-09-26 01:00:00 14.8 31 Oeste 79 Oeste 0 -- -- 54
2020-09-26 00:00:00 15.2 25 Oeste 79 Oeste 0 -- -- 52
2020-09-25 23:00:00 15.5 33 Oeste 67 Oeste 0 -- -- 50
2020-09-25 22:00:00 15.8 27 Oeste 64 Noroeste 0 -- -- 52
2020-09-25 21:00:00 16.4 28 Oeste 58 Oeste 0 -- -- 48
2020-09-25 20:00:00 17 30 Noroeste 64 Noroeste 0 -- -- 46
2020-09-25 19:00:00 18.6 30 Noroeste 81 Noroeste 0 -- -- 41
2020-09-25 18:00:00 19.4 36 Noroeste 77 Oeste 0 -- -- 38
2020-09-25 17:00:00 20.2 36 Oeste 94 Oeste 0 -- -- 35
2020-09-25 16:00:00 21.1 31 Oeste 67 Oeste 0 -- -- 35
2020-09-25 15:00:00 20.4 35 Noroeste 74 Oeste 0 -- -- 36
2020-09-25 14:00:00 19.8 40 Noroeste 75 Noroeste 0 -- -- 37
2020-09-25 13:00:00 19.6 33 Noroeste 83 Oeste 0 -- -- 38
2020-09-25 12:00:00 18.6 37 Noroeste 76 Noroeste 0 -- -- 41
2020-09-25 11:00:00 17.9 36 Oeste 73 Noroeste 0 -- -- 44
2020-09-25 10:00:00 16 26 Oeste 55 Oeste 0 -- -- 54
2020-09-25 09:00:00 15.9 18 Oeste 54 Noroeste 0 -- -- 55
2020-09-25 08:00:00 16.4 26 Noroeste 47 Noroeste 0 -- -- 56
2020-09-25 07:00:00 17.3 19 Oeste 43 Noroeste 0 -- -- 55
2020-09-25 06:00:00 18.7 21 Noroeste 45 Noroeste 0 -- -- 48
2020-09-25 05:00:00 18.7 7 Oeste 26 Sudoeste 0 -- -- 49
2020-09-25 04:00:00 19.5 6 Oeste 24 Sudoeste 0 -- -- 48
2020-09-25 03:00:00 20.7 9 Oeste 32 Sudoeste 0 -- -- 44
2020-09-25 02:00:00 18.9 5 Oeste 26 Oeste 0 -- -- 56
2020-09-25 01:00:00 20.5 9 Noroeste 24 Noroeste 0 -- -- 52
2020-09-25 00:00:00 18.1 8 Oeste 19 Oeste 0 -- -- 73
2020-09-24 23:00:00 19.5 9 Sudoeste 13 Sudoeste 0 -- -- 76
2020-09-24 22:00:00 19 4 Este 8 Sudoeste 0 -- -- 80
2020-09-24 21:00:00 20.9 5 Sudoeste 10 Sudoeste 0 -- -- 76
2020-09-24 20:00:00 22.8 5 Sudoeste 8 Sudoeste 0 -- -- 70
2020-09-24 19:00:00 24 5 Oeste 14 Oeste 0 -- -- 62
2020-09-24 18:00:00 25.2 7 Sudoeste 18 Oeste 0 -- -- 60
2020-09-24 17:00:00 23.8 8 Sudoeste 15 Sudoeste 0 -- -- 65
2020-09-24 16:00:00 21.5 6 Sudoeste 16 Oeste 0.6 -- -- 82
2020-09-24 15:00:00 23.6 5 Sudoeste 27 Noroeste 0.2 -- -- 64
2020-09-24 14:00:00 25.2 18 Noroeste 33 Noroeste 0 -- -- 54
2020-09-24 13:00:00 27.8 12 Oeste 23 Oeste 0 -- -- 44
2020-09-24 12:00:00 26.1 7 Norte 13 Norte 0 -- -- 51
2020-09-24 11:00:00 22.3 0 Calma 8 Norte 0 -- -- 65
2020-09-24 10:00:00 19.9 4 Norte 8 Noroeste 0 -- -- 72
2020-09-24 09:00:00 17.9 0 Calma 6 Oeste 0 -- -- 81
2020-09-24 08:00:00 16.6 5 Noroeste 10 Oeste 0 -- -- 83
2020-09-24 07:00:00 16.8 7 Oeste 11 Oeste 0 -- -- 83
2020-09-24 06:00:00 16.1 5 Oeste 8 Noroeste 0 -- -- 90
2020-09-24 05:00:00 15.8 4 Oeste 6 Oeste 0 -- -- 89
2020-09-24 04:00:00 16.2 0 Calma 6 Este 0 -- -- 87
2020-09-24 03:00:00 16.8 3 Oeste 6 Sudoeste 0 -- -- 87
2020-09-24 02:00:00 17.7 0 Calma 6 Oeste 0 -- -- 82
2020-09-24 01:00:00 19.5 3 Oeste 8 Sur 0 -- -- 77
2020-09-24 00:00:00 20.1 5 Sur 6 Sudoeste 0 -- -- 76
2020-09-23 23:00:00 20.6 2 Nordeste 8 Sudeste 0 -- -- 74
2020-09-23 22:00:00 21.2 3 Este 13 Oeste 0 -- -- 69
2020-09-23 21:00:00 22.1 0 Calma 10 Sudoeste 0 -- -- 65
2020-09-23 20:00:00 24.2 5 Sudoeste 11 Oeste 0 -- -- 60
2020-09-23 19:00:00 26.4 4 Oeste 14 Oeste 0 -- -- 55
2020-09-23 18:00:00 26.7 8 Oeste 19 Sudoeste 0 -- -- 53
2020-09-23 17:00:00 26.9 7 Sudoeste 24 Sudeste 0 -- -- 52
2020-09-23 16:00:00 28.6 3 Norte 18 Noroeste 0 -- -- 40
2020-09-23 15:00:00 29.4 6 Sudoeste 17 Norte 0 -- -- 39
2020-09-23 14:00:00 29.2 7 Sur 13 Este 0 -- -- 39
2020-09-23 13:00:00 25.1 3 Norte 11 Noroeste 0 -- -- 49
2020-09-23 12:00:00 23.1 4 Norte 7 Noroeste 0 -- -- 55
2020-09-23 11:00:00 20.9 3 Noroeste 6 Noroeste 0 -- -- 66
2020-09-23 10:00:00 17.7 5 Noroeste 9 Noroeste 0 -- -- 80
2020-09-23 09:00:00 15.5 0 Calma 8 Noroeste 0 -- -- 97
2020-09-23 08:00:00 12.9 0 Calma 4 Sudoeste 0 -- -- 96
2020-09-23 07:00:00 13.5 4 Oeste 6 Sudoeste 0 -- -- 96
2020-09-23 06:00:00 13.7 0 Calma 4 Sudoeste 0 -- -- 95
2020-09-23 05:00:00 14.2 0 Calma 8 Sur 0 -- -- 94
2020-09-23 04:00:00 14.8 7 Sur 10 Noroeste 0 -- -- 95
2020-09-23 03:00:00 15.3 2 Sur 9 Oeste 0 -- -- 93
2020-09-23 02:00:00 16 0 Calma 12 Sur 0 -- -- 90
2020-09-23 01:00:00 16.2 3 Sudoeste 5 Oeste 0 -- -- 91
2020-09-23 00:00:00 17.2 3 Sudoeste 7 Sudoeste 0 -- -- 88
2020-09-22 23:00:00 18 5 Sudoeste 9 Sudeste 0 -- -- 86
2020-09-22 22:00:00 19.3 5 Sur 10 Sur 0 -- -- 79
2020-09-22 21:00:00 20.7 3 Sur 12 Sudoeste 0 -- -- 74
2020-09-22 20:00:00 23 2 Sur 21 Sudeste 0 -- -- 64
2020-09-22 19:00:00 25 12 Este 25 Sudeste 0 -- -- 56
2020-09-22 18:00:00 26.7 15 Sudeste 26 Sudeste 0 -- -- 50
2020-09-22 17:00:00 27.4 8 Sudeste 22 Este 0 -- -- 46
2020-09-22 16:00:00 25.9 10 Sudeste 29 Sudeste 0 -- -- 52
2020-09-22 15:00:00 27.9 9 Sudeste 23 Sudeste 0 -- -- 45
2020-09-22 14:00:00 27.6 4 Norte 18 Nordeste 0 -- -- 45
2020-09-22 13:00:00 25.8 5 Norte 17 Noroeste 0 -- -- 48
2020-09-22 12:00:00 23.4 3 Norte 16 Noroeste 0 -- -- 58
2020-09-22 11:00:00 21.9 6 Norte 17 Norte 0 -- -- 63
2020-09-22 10:00:00 19.1 6 Noroeste 11 Noroeste 0 -- -- 76
2020-09-22 09:00:00 17.1 0 Calma 10 Noroeste 0 -- -- 84
2020-09-22 08:00:00 14.7 4 Sudoeste 9 Oeste 0 -- -- 90
2020-09-22 07:00:00 15.5 5 Oeste 10 Oeste 0 -- -- 88
2020-09-22 06:00:00 15.5 0 Calma 12 Oeste 0 -- -- 88
2020-09-22 05:00:00 15.6 8 Oeste 12 Oeste 0 -- -- 95
2020-09-22 04:00:00 15.6 5 Oeste 6 Oeste 0 -- -- 95
2020-09-22 03:00:00 15.9 0 Calma 5 Noroeste 0 -- -- 91
2020-09-22 02:00:00 16.7 4 Oeste 7 Noroeste 0 -- -- 91
2020-09-22 01:00:00 17.7 0 Calma 10 Sur 0 -- -- 87
2020-09-22 00:00:00 17.8 4 Sudeste 8 Sur 0 -- -- 86
2020-09-21 23:00:00 18.7 6 Sur 7 Sur 0 -- -- 82
2020-09-21 22:00:00 20.8 3 Sur 14 Sur 0 -- -- 74
2020-09-21 21:00:00 21.8 7 Sudeste 14 Sudeste 0 -- -- 73
2020-09-21 20:00:00 23.4 10 Sudeste 17 Sudeste 0 -- -- 68
2020-09-21 19:00:00 24 7 Sudeste 23 Este 0 -- -- 72
2020-09-21 18:00:00 25.1 13 Sudeste 32 Sudeste 0 -- -- 64
2020-09-21 17:00:00 27.7 7 Oeste 21 Noroeste 0 -- -- 48
2020-09-21 16:00:00 27.3 6 Noroeste 26 Noroeste 0 -- -- 44
2020-09-21 15:00:00 27.1 9 Noroeste 25 Oeste 0 -- -- 46
2020-09-21 14:00:00 26.7 14 Noroeste 30 Noroeste 0 -- -- 49
2020-09-21 13:00:00 26.1 17 Noroeste 31 Noroeste 0 -- -- 51
2020-09-21 12:00:00 25.3 16 Oeste 29 Oeste 0 -- -- 55
2020-09-21 11:00:00 23.3 10 Noroeste 19 Norte 0 -- -- 64
2020-09-21 10:00:00 20.1 8 Norte 13 Norte 0 -- -- 76
2020-09-21 09:00:00 19 6 Norte 10 Norte 0 -- -- 83
2020-09-21 08:00:00 18.5 5 Noroeste 9 Noroeste 0 -- -- 84
2020-09-21 07:00:00 18.7 5 Noroeste 9 Noroeste 0 -- -- 84
2020-09-21 06:00:00 19 5 Noroeste 6 Noroeste 0 -- -- 83
2020-09-21 05:00:00 19.1 3 Oeste 7 Oeste 0 -- -- 83
2020-09-21 04:00:00 19.4 0 Calma 5 Noroeste 0 -- -- 83
2020-09-21 03:00:00 19.9 0 Calma 6 Norte 0 -- -- 81
2020-09-21 02:00:00 20.6 5 Norte 11 Noroeste 0 -- -- 75
2020-09-21 01:00:00 20.1 3 Noroeste 9 Oeste 0 -- -- 83
2020-09-21 00:00:00 20.2 3 Sur 9 Sudoeste 0 -- -- 76
2020-09-20 23:00:00 21.4 8 Sudoeste 16 Sudoeste 0 -- -- 69
2020-09-20 22:00:00 19.9 3 Sudoeste 6 Sudoeste 0 -- -- 78
2020-09-20 21:00:00 21.4 3 Sudoeste 5 Sudoeste 0 -- -- 71
2020-09-20 20:00:00 24.5 0 Calma 10 Oeste 0 -- -- 60
2020-09-20 19:00:00 27.6 3 Sur 17 Oeste 0 -- -- 49
2020-09-20 18:00:00 28.3 5 Sudoeste 21 Sudoeste 0 -- -- 46
2020-09-20 17:00:00 27.2 6 Sudoeste 26 Sudeste 0 -- -- 48
2020-09-20 16:00:00 27.9 11 Este 38 Este 0 -- -- 46
2020-09-20 15:00:00 27.8 11 Noroeste 27 Norte 0 -- -- 44
2020-09-20 14:00:00 27.7 11 Oeste 33 Noroeste 0 -- -- 43
2020-09-20 13:00:00 26.7 18 Noroeste 31 Noroeste 0 -- -- 46
2020-09-20 12:00:00 25.4 16 Noroeste 33 Noroeste 0 -- -- 49
2020-09-20 11:00:00 24.2 14 Noroeste 34 Noroeste 0 -- -- 52
2020-09-20 10:00:00 22.4 6 Norte 12 Noroeste 0 -- -- 58
2020-09-20 09:00:00 20.2 0 Calma 13 Oeste 0 -- -- 64
2020-09-20 08:00:00 16.1 2 Sudoeste 12 Sudoeste 0 -- -- 79
2020-09-20 07:00:00 16.4 3 Sur 10 Sudeste 0 -- -- 77
2020-09-20 06:00:00 16.5 2 Este 7 Sudoeste 0 -- -- 76
2020-09-20 05:00:00 17.2 3 Sur 9 Nordeste 0 -- -- 74
2020-09-20 04:00:00 18.5 2 Este 10 Nordeste 0 -- -- 70
2020-09-20 03:00:00 20.2 5 Noroeste 9 Nordeste 0 -- -- 62
2020-09-20 02:00:00 21.8 3 Noroeste 27 Noroeste 0 -- -- 58
2020-09-20 01:00:00 22.7 12 Noroeste 22 Noroeste 0 -- -- 56
2020-09-20 00:00:00 23.2 10 Oeste 18 Oeste 0 -- -- 54
2020-09-19 23:00:00 24 9 Oeste 21 Oeste 0 -- -- 51
2020-09-19 22:00:00 22.9 8 Oeste 12 Oeste 0 -- -- 56
2020-09-19 21:00:00 23.4 7 Oeste 14 Sudoeste 0 -- -- 59
2020-09-19 20:00:00 24.3 7 Sudoeste 12 Oeste 0 -- -- 62
2020-09-19 19:00:00 26 7 Oeste 14 Este 0 -- -- 58
2020-09-19 18:00:00 27 6 Sudeste 23 Este 0 -- -- 55
2020-09-19 17:00:00 27.5 13 Sudeste 26 Sudeste 0 -- -- 56
2020-09-19 16:00:00 28.6 10 Sudeste 22 Sudeste 0 -- -- 53
2020-09-19 15:00:00 27.8 5 Norte 16 Este 0 -- -- 54
2020-09-19 14:00:00 27.3 2 Nordeste 17 Norte 0 -- -- 49
2020-09-19 13:00:00 27.8 5 Noroeste 15 Norte 0 -- -- 51
2020-09-19 12:00:00 26.7 6 Norte 12 Noroeste 0 -- -- 55
2020-09-19 11:00:00 24.9 5 Nordeste 10 Norte 0 -- -- 73
2020-09-19 10:00:00 21.3 6 Norte 10 Norte 0 -- -- 88
2020-09-19 09:00:00 19.3 4 Norte 7 Norte 0 -- -- 97
2020-09-19 08:00:00 17.5 0 Calma 7 Sur 0 -- -- 96
2020-09-19 07:00:00 17.9 4 Sur 8 Sur 0 -- -- 96
2020-09-19 06:00:00 18.3 2 Noroeste 8 Noroeste 0 -- -- 96
2020-09-19 05:00:00 18.5 0 Calma 4 Sudoeste 0 -- -- 96
2020-09-19 04:00:00 18.2 0 Calma 6 Oeste 0 -- -- 96
2020-09-19 03:00:00 17.9 0 Calma 8 Sur 0 -- -- 94
2020-09-19 02:00:00 18.1 4 Sur 9 Sudoeste 0 -- -- 92
2020-09-19 01:00:00 19.2 7 Sudoeste 10 Sudoeste 0 -- -- 92
2020-09-19 00:00:00 19.1 3 Sur 9 Sudeste 0 -- -- 92
2020-09-18 23:00:00 20.4 5 Sur 18 Sudoeste 0 -- -- 90
2020-09-18 22:00:00 20.6 5 Noroeste 11 Sur 0 -- -- 90
2020-09-18 21:00:00 21.2 6 Sudoeste 16 Sudeste 0 -- -- 86
2020-09-18 20:00:00 22.5 8 Sudeste 21 Sudeste 0 -- -- 82
2020-09-18 19:00:00 23.7 12 Sudeste 22 Sudeste 0 -- -- 75
2020-09-18 18:00:00 22.6 10 Sudeste 22 Sudeste 0 -- -- 81
2020-09-18 17:00:00 22.9 12 Sudeste 25 Sur 0 -- -- 78
2020-09-18 16:00:00 22.8 12 Sudeste 31 Sudeste 0 -- -- 77
2020-09-18 15:00:00 23.3 16 Sudeste 36 Sudeste 0 -- -- 77
2020-09-18 14:00:00 24.7 8 Sudeste 18 Sudeste 0 -- -- 71
2020-09-18 13:00:00 24.1 13 Sudeste 20 Sudeste 0 -- -- 75
2020-09-18 12:00:00 21.3 4 Sudoeste 12 Este 0.2 -- -- 92
2020-09-18 11:00:00 21.6 12 Oeste 22 Oeste 2.6 -- -- 93
2020-09-18 10:00:00 22.6 10 Sur 18 Sudeste 2.6 -- -- 94
2020-09-18 09:00:00 23.2 6 Sudeste 17 Sudeste 0 -- -- 90
2020-09-18 08:00:00 23.2 10 Sudeste 17 Sudeste 0 -- -- 88
2020-09-18 07:00:00 23.2 12 Sudeste 22 Sudeste 0 -- -- 89
2020-09-18 06:00:00 22.6 9 Sudeste 18 Sudeste 0 -- -- 90
2020-09-18 05:00:00 22.7 11 Sudeste 26 Sudeste 0 -- -- 89
2020-09-18 04:00:00 22.3 12 Sudeste 22 Sudeste 0 -- -- 91
2020-09-18 03:00:00 21.8 11 Sudeste 17 Sudeste 0 -- -- 93
2020-09-18 02:00:00 21.9 6 Sur 9 Sudeste 0 -- -- 91
2020-09-18 01:00:00 23 7 Sudeste 16 Este 0 -- -- 87
2020-09-18 00:00:00 23.1 8 Sudeste 20 Sudeste 0 -- -- 87
2020-09-17 23:00:00 23.7 8 Sudeste 20 Sudeste 0 -- -- 85
2020-09-17 22:00:00 24.2 12 Sudeste 23 Sudeste 0 -- -- 82
2020-09-17 21:00:00 24.5 12 Sudeste 24 Sudeste 0 -- -- 81
2020-09-17 20:00:00 25 13 Sudeste 24 Sudeste 0 -- -- 75
2020-09-17 19:00:00 25.7 12 Este 23 Sudeste 0 -- -- 71
2020-09-17 18:00:00 26.3 14 Sudeste 31 Este 0 -- -- 69
2020-09-17 17:00:00 27.9 16 Sudeste 36 Este 0 -- -- 63
2020-09-17 16:00:00 28.8 17 Sudeste 31 Sudeste 0 -- -- 63
2020-09-17 15:00:00 28.5 13 Sudeste 27 Sudeste 0 -- -- 61
2020-09-17 14:00:00 26.5 11 Sudeste 24 Sudeste 0 -- -- 69
2020-09-17 13:00:00 24.4 3 Nordeste 10 Sudeste 0 -- -- 73
2020-09-17 12:00:00 22.7 3 Oeste 5 Oeste 0 -- -- 78
2020-09-17 11:00:00 20.5 4 Noroeste 9 Norte 0 -- -- 82
2020-09-17 10:00:00 19.8 0 Calma 6 Norte 0 -- -- 85
2020-09-17 09:00:00 18.8 2 Noroeste 5 Sudeste 0 -- -- 93
2020-09-17 08:00:00 17.7 0 Calma 0 Calma 0 -- -- 95
2020-09-17 07:00:00 17.7 0 Calma 2 Sudoeste 0 -- -- 94
2020-09-17 06:00:00 17.8 0 Calma 4 Sur 0 -- -- 92
2020-09-17 05:00:00 18.8 0 Calma 4 Oeste 0 -- -- 92
2020-09-17 04:00:00 20 4 Oeste 7 Oeste 0 -- -- 91
2020-09-17 03:00:00 20.8 2 Noroeste 6 Sur 0 -- -- 91
2020-09-17 02:00:00 21.8 4 Sur 11 Sur 0 -- -- 90
2020-09-17 01:00:00 22.4 7 Sudeste 18 Sudeste 0 -- -- 90
2020-09-17 00:00:00 22.5 8 Sudeste 16 Sur 0 -- -- 88
2020-09-16 23:00:00 23.1 9 Sur 17 Sudeste 0 -- -- 87
2020-09-16 22:00:00 23.5 8 Sur 17 Sudeste 0 -- -- 84
2020-09-16 21:00:00 24.1 10 Sudeste 22 Sudeste 0 -- -- 81
2020-09-16 20:00:00 25.3 13 Sudeste 25 Sudeste 0 -- -- 74
2020-09-16 19:00:00 27.3 15 Sudeste 29 Sudeste 0 -- -- 64
2020-09-16 18:00:00 28.8 18 Sudeste 34 Este 0 -- -- 58
2020-09-16 17:00:00 30.3 16 Sudeste 33 Este 0 -- -- 50
2020-09-16 16:00:00 31 18 Sudeste 34 Este 0 -- -- 48
2020-09-16 15:00:00 31.4 15 Sudeste 30 Sudeste 0 -- -- 52
2020-09-16 14:00:00 31.9 13 Sudeste 23 Sudeste 0 -- -- 54
2020-09-16 13:00:00 30.8 4 Nordeste 13 Nordeste 0 -- -- 51
2020-09-16 12:00:00 28.2 4 Nordeste 11 Norte 0 -- -- 59
2020-09-16 11:00:00 24.7 0 Calma 5 Norte 0 -- -- 76
2020-09-16 10:00:00 22 0 Calma 5 Noroeste 0 -- -- 79
2020-09-16 09:00:00 20.5 0 Calma 3 Nordeste 0 -- -- 83
2020-09-16 08:00:00 20 0 Calma 2 Nordeste 0 -- -- 88
2020-09-16 07:00:00 20.3 0 Calma 3 Nordeste 0 -- -- 89
2020-09-16 06:00:00 21 2 Oeste 5 Norte 0 -- -- 88
2020-09-16 05:00:00 21.3 0 Calma 5 Noroeste 0 -- -- 89
2020-09-16 04:00:00 21.9 0 Calma 11 Sur 0 -- -- 89
2020-09-16 03:00:00 22.9 7 Sudeste 13 Sudeste 0 -- -- 90
2020-09-16 02:00:00 23 8 Sur 13 Sudeste 0 -- -- 89
2020-09-16 01:00:00 23.2 9 Sur 17 Sudeste 0 -- -- 89
2020-09-16 00:00:00 23.5 9 Sudeste 16 Sudeste 0 -- -- 87
2020-09-15 23:00:00 23.9 9 Sudeste 17 Sudeste 0 -- -- 83
2020-09-15 22:00:00 24.3 9 Sudeste 19 Sudeste 0 -- -- 79
2020-09-15 21:00:00 24.7 11 Sudeste 21 Sudeste 0 -- -- 75
2020-09-15 20:00:00 26 11 Sudeste 27 Sudeste 0 -- -- 67
2020-09-15 19:00:00 28.1 14 Sudeste 27 Sudeste 0 -- -- 54
2020-09-15 18:00:00 29.1 16 Sudeste 34 Este 0 -- -- 53
2020-09-15 17:00:00 30.7 18 Sudeste 33 Sudeste 0 -- -- 49
2020-09-15 16:00:00 31.3 17 Este 36 Sudeste 0 -- -- 47
2020-09-15 15:00:00 31.7 14 Sudeste 26 Sudeste 0 -- -- 48
2020-09-15 14:00:00 31.9 11 Sudeste 21 Sudeste 0 -- -- 46
2020-09-15 13:00:00 29.4 4 Nordeste 13 Este 0 -- -- 52
2020-09-15 12:00:00 27.2 6 Norte 12 Norte 0 -- -- 59
2020-09-15 11:00:00 24.4 3 Norte 9 Nordeste 0 -- -- 76
2020-09-15 10:00:00 21.7 2 Noroeste 8 Norte 0 -- -- 84
2020-09-15 09:00:00 21.1 5 Norte 10 Oeste 0 -- -- 87
2020-09-15 08:00:00 20.2 2 Sudoeste 16 Oeste 0 -- -- 89
2020-09-15 07:00:00 20.2 5 Sudeste 11 Sudeste 0 -- -- 92
2020-09-15 06:00:00 20 2 Este 10 Oeste 0 -- -- 90
2020-09-15 05:00:00 20.8 8 Sudoeste 13 Sudoeste 0 -- -- 89
2020-09-15 04:00:00 21.5 3 Sur 14 Sudeste 0 -- -- 92
2020-09-15 03:00:00 21.6 9 Sur 13 Sudeste 0 -- -- 93
2020-09-15 02:00:00 21.4 8 Sudeste 13 Sudeste 0 -- -- 92
2020-09-15 01:00:00 21.6 7 Sudeste 15 Sudeste 0 -- -- 90
2020-09-15 00:00:00 22.1 10 Sudeste 19 Sudeste 0 -- -- 87
2020-09-14 23:00:00 22.4 10 Sudeste 21 Sudeste 0 -- -- 84
2020-09-14 22:00:00 23 12 Sudeste 22 Sudeste 0 -- -- 85
2020-09-14 21:00:00 23.7 10 Sudeste 19 Sudeste 0 -- -- 78
2020-09-14 20:00:00 25.4 11 Sudeste 25 Sudeste 0 -- -- 57
2020-09-14 19:00:00 27.1 14 Sudeste 28 Este 0 -- -- 53
2020-09-14 18:00:00 27.8 15 Sudeste 37 Sudeste 0 -- -- 46
2020-09-14 17:00:00 29.5 16 Sudeste 32 Sudeste 0 -- -- 42
2020-09-14 16:00:00 30.8 16 Sudeste 29 Sudeste 0 -- -- 40
2020-09-14 15:00:00 31.2 16 Sudeste 30 Este 0 -- -- 39
2020-09-14 14:00:00 31.2 17 Este 31 Este 0 -- -- 38
2020-09-14 13:00:00 31.1 13 Sudeste 30 Este 0 -- -- 40
2020-09-14 12:00:00 29.5 13 Este 27 Este 0 -- -- 47
2020-09-14 11:00:00 25.4 4 Norte 8 Noroeste 0 -- -- 66
2020-09-14 10:00:00 21.2 4 Norte 8 Norte 0 -- -- 75
2020-09-14 09:00:00 18.9 0 Calma 3 Nordeste 0 -- -- 82
2020-09-14 08:00:00 15.7 0 Calma 3 Sur 0 -- -- 94
2020-09-14 07:00:00 16.1 0 Calma 4 Oeste 0 -- -- 90
2020-09-14 06:00:00 16.9 0 Calma 6 Sur 0 -- -- 92
2020-09-14 05:00:00 17.3 0 Calma 4 Noroeste 0 -- -- 87
2020-09-14 04:00:00 18.7 3 Noroeste 9 Sudeste 0 -- -- 82
2020-09-14 03:00:00 22.2 7 Sudeste 13 Sur 0 -- -- 90
2020-09-14 02:00:00 22.5 8 Sur 16 Sur 0 -- -- 89
2020-09-14 01:00:00 22.9 10 Sur 17 Sur 0 -- -- 89
2020-09-14 00:00:00 23.1 10 Sur 16 Sur 0 -- -- 81
2020-09-13 23:00:00 23.4 11 Sudeste 19 Sur 0 -- -- 75
2020-09-13 22:00:00 23.9 10 Sur 16 Sudeste 0 -- -- 73
2020-09-13 21:00:00 25 8 Sudeste 20 Sudeste 0 -- -- 73
2020-09-13 20:00:00 27.4 10 Sudeste 27 Este 0 -- -- 64
2020-09-13 19:00:00 30.1 15 Sudeste 31 Este 0 -- -- 39
2020-09-13 18:00:00 31.3 17 Sudeste 33 Este 0 -- -- 36
2020-09-13 17:00:00 32.3 19 Sudeste 32 Sudeste 0 -- -- 35
2020-09-13 16:00:00 32.9 17 Sudeste 33 Sudeste 0 -- -- 35
2020-09-13 15:00:00 32.9 19 Este 36 Este 0 -- -- 36
2020-09-13 14:00:00 33.8 15 Sudeste 32 Sudeste 0 -- -- 32
2020-09-13 13:00:00 33 9 Este 21 Nordeste 0 -- -- 34
2020-09-13 12:00:00 28.5 4 Norte 10 Noroeste 0 -- -- 42
2020-09-13 11:00:00 24.7 4 Noroeste 10 Noroeste 0 -- -- 52
2020-09-13 10:00:00 21.4 3 Norte 6 Noroeste 0 -- -- 62
2020-09-13 09:00:00 17.9 2 Norte 4 Noroeste 0 -- -- 76
2020-09-13 08:00:00 14.4 0 Calma 5 Sudoeste 0 -- -- 85
2020-09-13 07:00:00 14.6 0 Calma 3 Sudoeste 0 -- -- 85
2020-09-13 06:00:00 15.2 2 Sur 4 Sur 0 -- -- 83
2020-09-13 05:00:00 15.9 0 Calma 5 Oeste 0 -- -- 79
2020-09-13 04:00:00 16.7 0 Calma 6 Sudoeste 0 -- -- 77
2020-09-13 03:00:00 17.5 3 Sudeste 6 Sur 0 -- -- 73
2020-09-13 02:00:00 18.6 0 Calma 8 Sur 0 -- -- 68
2020-09-13 01:00:00 20.8 0 Calma 19 Sudeste 0 -- -- 60
2020-09-13 00:00:00 22.4 6 Sur 20 Sudeste 0 -- -- 55
2020-09-12 23:00:00 23.9 9 Sudeste 22 Sudeste 0 -- -- 54
2020-09-12 22:00:00 23.7 8 Sur 15 Sur 0 -- -- 56
2020-09-12 21:00:00 25.1 8 Sur 21 Este 0 -- -- 50
2020-09-12 20:00:00 27.5 12 Sudeste 31 Sudeste 0 -- -- 41
2020-09-12 19:00:00 29.4 15 Este 30 Este 0 -- -- 38
2020-09-12 18:00:00 30.7 17 Este 33 Sudeste 0 -- -- 37
2020-09-12 17:00:00 31.8 17 Sudeste 34 Sudeste 0 -- -- 34
2020-09-12 16:00:00 32.8 16 Sudeste 30 Sudeste 0 -- -- 37
2020-09-12 15:00:00 31.8 6 Noroeste 18 Norte 0 -- -- 35
2020-09-12 14:00:00 31.1 6 Norte 15 Norte 0 -- -- 40
2020-09-12 13:00:00 29.6 6 Nordeste 16 Norte 0 -- -- 44
2020-09-12 12:00:00 27.1 5 Norte 14 Norte 0 -- -- 52
2020-09-12 11:00:00 24.2 5 Norte 11 Norte 0 -- -- 60
2020-09-12 10:00:00 20.7 7 Noroeste 10 Oeste 0 -- -- 70
2020-09-12 09:00:00 18.3 4 Norte 7 Norte 0 -- -- 84
2020-09-12 08:00:00 15.6 0 Calma 5 Oeste 0 -- -- 94
2020-09-12 07:00:00 15.5 0 Calma 4 Este 0 -- -- 93
2020-09-12 06:00:00 16.1 0 Calma 3 Oeste 0 -- -- 92
2020-09-12 05:00:00 16.6 2 Noroeste 5 Oeste 0 -- -- 90
2020-09-12 04:00:00 17.6 3 Oeste 5 Noroeste 0 -- -- 88
2020-09-12 03:00:00 18.4 0 Calma 4 Noroeste 0 -- -- 88
2020-09-12 02:00:00 19.8 0 Calma 6 Sur 0 -- -- 84
2020-09-12 01:00:00 22.1 4 Sur 15 Sudeste 0 -- -- 79
2020-09-12 00:00:00 22.9 12 Sur 20 Este 0 -- -- 76
2020-09-11 23:00:00 23.1 11 Sur 22 Sudeste 0 -- -- 72
2020-09-11 22:00:00 23.2 12 Sudeste 23 Sur 0 -- -- 67
2020-09-11 21:00:00 24.1 11 Sudeste 19 Sudeste 0 -- -- 56
2020-09-11 20:00:00 26.1 12 Sudeste 32 Sudeste 0 -- -- 45
2020-09-11 19:00:00 28.5 18 Este 31 Sudeste 0 -- -- 43
2020-09-11 18:00:00 30.7 15 Sudeste 30 Sudeste 0 -- -- 39
2020-09-11 17:00:00 32.7 12 Sudeste 23 Sudeste 0 -- -- 37
2020-09-11 16:00:00 32.3 6 Norte 19 Norte 0 -- -- 33
2020-09-11 15:00:00 31.5 7 Norte 21 Norte 0 -- -- 35
2020-09-11 14:00:00 30.2 8 Oeste 21 Noroeste 0 -- -- 38
2020-09-11 13:00:00 28.9 11 Noroeste 22 Oeste 0 -- -- 42
2020-09-11 12:00:00 27.1 12 Noroeste 26 Noroeste 0 -- -- 45
2020-09-11 11:00:00 25.5 10 Norte 19 Norte 0 -- -- 50
2020-09-11 10:00:00 22.7 7 Norte 15 Noroeste 0 -- -- 58
2020-09-11 09:00:00 19.3 6 Noroeste 9 Noroeste 0 -- -- 72
2020-09-11 08:00:00 17 6 Oeste 12 Oeste 0 -- -- 83
2020-09-11 07:00:00 16.6 6 Oeste 10 Oeste 0 -- -- 86
2020-09-11 06:00:00 16.9 6 Oeste 9 Noroeste 0 -- -- 87
2020-09-11 05:00:00 17.5 4 Noroeste 8 Norte 0 -- -- 90
2020-09-11 04:00:00 17.8 4 Oeste 8 Oeste 0 -- -- 87
2020-09-11 03:00:00 18.2 6 Oeste 9 Oeste 0 -- -- 86
2020-09-11 02:00:00 18.9 3 Oeste 7 Oeste 0 -- -- 83
2020-09-11 01:00:00 20.7 0 Calma 9 Oeste 0 -- -- 77
2020-09-11 00:00:00 22.2 5 Sur 15 Sudeste 0 -- -- 76
2020-09-10 23:00:00 22.6 8 Sudeste 19 Sudeste 0 -- -- 75
2020-09-10 22:00:00 22.5 8 Sudeste 26 Sudeste 0 -- -- 74
2020-09-10 21:00:00 23.5 16 Sudeste 28 Sudeste 0 -- -- 68
2020-09-10 20:00:00 25.6 10 Sudeste 22 Este 0 -- -- 56
2020-09-10 19:00:00 28.3 11 Este 25 Este 0 -- -- 48
2020-09-10 18:00:00 28.8 13 Sudeste 28 Sudeste 0 -- -- 47
2020-09-10 17:00:00 30.6 5 Oeste 18 Noroeste 0 -- -- 33
2020-09-10 16:00:00 29.1 8 Noroeste 24 Noroeste 0 -- -- 37
2020-09-10 15:00:00 29.2 9 Norte 25 Sudoeste 0 -- -- 38
2020-09-10 14:00:00 28.8 7 Oeste 28 Noroeste 0 -- -- 40
2020-09-10 13:00:00 28.1 12 Sudoeste 25 Sudoeste 0 -- -- 43
2020-09-10 12:00:00 25.1 9 Noroeste 22 Noroeste 0 -- -- 55
2020-09-10 11:00:00 23.6 4 Norte 12 Norte 0 -- -- 65
2020-09-10 10:00:00 21.3 5 Norte 11 Norte 0 -- -- 74
2020-09-10 09:00:00 19.3 2 Nordeste 5 Nordeste 0 -- -- 81
2020-09-10 08:00:00 16.9 3 Noroeste 8 Oeste 0 -- -- 90
2020-09-10 07:00:00 17 4 Oeste 6 Sudoeste 0 -- -- 89
2020-09-10 06:00:00 17 2 Sudoeste 8 Oeste 0 -- -- 90
2020-09-10 05:00:00 16.5 6 Sudoeste 8 Sudoeste 0 -- -- 90
2020-09-10 04:00:00 17.5 0 Calma 4 Noroeste 0 -- -- 86
2020-09-10 03:00:00 17.5 3 Sudoeste 4 Sur 0 -- -- 85
2020-09-10 02:00:00 17.9 3 Sur 5 Sudoeste 0 -- -- 84
2020-09-10 01:00:00 18.7 0 Calma 5 Oeste 0 -- -- 82
2020-09-10 00:00:00 19.2 0 Calma 5 Sudeste 0 -- -- 81
2020-09-09 23:00:00 20.2 3 Este 10 Sur 0 -- -- 77
2020-09-09 22:00:00 20.8 7 Sur 18 Sur 0 -- -- 75
2020-09-09 21:00:00 21.1 10 Sur 26 Sur 0 -- -- 73
2020-09-09 20:00:00 21.8 14 Sudeste 26 Sudeste 0 -- -- 74
2020-09-09 19:00:00 22.5 18 Sudeste 29 Sudeste 0 -- -- 69
2020-09-09 18:00:00 24.1 18 Sudeste 33 Sudeste 0 -- -- 62
2020-09-09 17:00:00 26.3 2 Norte 17 Sudeste 0 -- -- 50
2020-09-09 16:00:00 25.8 11 Sudeste 23 Sudeste 0 -- -- 59
2020-09-09 15:00:00 24.7 8 Norte 26 Noroeste 0 -- -- 55
2020-09-09 14:00:00 25 9 Noroeste 20 Norte 0 -- -- 53
2020-09-09 13:00:00 25.7 9 Norte 21 Norte 0 -- -- 52
2020-09-09 12:00:00 23.3 10 Noroeste 18 Norte 0 -- -- 57
2020-09-09 11:00:00 22.7 7 Norte 13 Norte 0 -- -- 66
2020-09-09 10:00:00 20.7 4 Norte 10 Norte 0 -- -- 77
2020-09-09 09:00:00 17.4 2 Nordeste 6 Nordeste 0.2 -- -- 92
2020-09-09 08:00:00 16.7 2 Oeste 5 Este 0 -- -- 92
2020-09-09 07:00:00 16.8 0 Calma 4 Sur 0 -- -- 92
2020-09-09 06:00:00 17 2 Oeste 10 Sudoeste 0.2 -- -- 89
2020-09-09 05:00:00 17.1 2 Oeste 6 Norte 0 -- -- 83
2020-09-09 04:00:00 16.9 3 Sudoeste 7 Sudoeste 0 -- -- 84
2020-09-09 03:00:00 16.6 2 Este 5 Sudoeste 0 -- -- 84
2020-09-09 02:00:00 17.6 3 Sudeste 8 Sudoeste 0 -- -- 81
2020-09-09 01:00:00 18.3 0 Calma 6 Sudoeste 0 -- -- 78
2020-09-09 00:00:00 19.5 0 Calma 6 Sudoeste 0 -- -- 73
2020-09-08 23:00:00 21.2 3 Sur 8 Sudoeste 0 -- -- 68
2020-09-08 22:00:00 22.5 5 Sudoeste 13 Sudeste 0 -- -- 63
2020-09-08 21:00:00 23.3 9 Sudeste 17 Sudeste 0 -- -- 57
2020-09-08 20:00:00 24 9 Sudeste 26 Sudeste 0 -- -- 50
2020-09-08 19:00:00 24.6 14 Sudeste 23 Sudeste 0 -- -- 49
2020-09-08 18:00:00 25.6 12 Sudeste 26 Sudeste 0 -- -- 42
2020-09-08 17:00:00 27.1 13 Sudeste 25 Sudeste 0 -- -- 38
2020-09-08 16:00:00 28.5 8 Oeste 22 Noroeste 0 -- -- 33
2020-09-08 15:00:00 26.9 10 Noroeste 21 Norte 0 -- -- 34
2020-09-08 14:00:00 25.7 9 Norte 22 Noroeste 0 -- -- 38
2020-09-08 13:00:00 24.7 10 Norte 25 Noroeste 0 -- -- 42
2020-09-08 12:00:00 23.1 14 Norte 25 Noroeste 0 -- -- 44
2020-09-08 11:00:00 20.2 11 Norte 22 Noroeste 0 -- -- 53
2020-09-08 10:00:00 18.1 10 Norte 22 Norte 0 -- -- 59
2020-09-08 09:00:00 15.7 5 Noroeste 13 Norte 0 -- -- 69
2020-09-08 08:00:00 13.9 6 Noroeste 13 Norte 0 -- -- 78
2020-09-08 07:00:00 14.1 5 Oeste 13 Noroeste 0 -- -- 77
2020-09-08 06:00:00 14.3 5 Noroeste 10 Norte 0 -- -- 82
2020-09-08 05:00:00 14.9 5 Noroeste 14 Noroeste 0 -- -- 83
2020-09-08 04:00:00 15.9 10 Noroeste 14 Noroeste 0 -- -- 80
2020-09-08 03:00:00 16.3 4 Noroeste 13 Sur 0 -- -- 69
2020-09-08 02:00:00 17.3 9 Sudeste 30 Sur 0 -- -- 77
2020-09-08 01:00:00 18.1 16 Sur 27 Sur 0 -- -- 78
2020-09-08 00:00:00 17.6 6 Sudoeste 9 Sudoeste 0 -- -- 79
2020-09-07 23:00:00 18 3 Sudoeste 10 Sur 0 -- -- 75
2020-09-07 22:00:00 20.1 8 Sudeste 22 Sudeste 0 -- -- 71
2020-09-07 21:00:00 21 10 Sudeste 23 Sudeste 0 -- -- 67
2020-09-07 20:00:00 22.5 12 Sudeste 31 Este 0 -- -- 57
2020-09-07 19:00:00 23.4 16 Sudeste 32 Sudeste 0 -- -- 54
2020-09-07 18:00:00 25 18 Sudeste 32 Sudeste 0 -- -- 46
2020-09-07 17:00:00 28.1 8 Sudeste 25 Noroeste 0 -- -- 32
2020-09-07 16:00:00 27 13 Oeste 26 Oeste 0 -- -- 35
2020-09-07 15:00:00 26.5 9 Sur 27 Oeste 0 -- -- 36
2020-09-07 14:00:00 25.9 9 Sudoeste 30 Sudoeste 0 -- -- 37
2020-09-07 13:00:00 24.3 14 Oeste 27 Oeste 0 -- -- 40
2020-09-07 12:00:00 22.2 15 Oeste 35 Oeste 0 -- -- 44
2020-09-07 11:00:00 20.4 17 Oeste 32 Sudoeste 0 -- -- 48
2020-09-07 10:00:00 19.5 12 Oeste 34 Oeste 0 -- -- 51
2020-09-07 09:00:00 18.1 16 Oeste 38 Oeste 0 -- -- 54
2020-09-07 08:00:00 17.9 12 Noroeste 24 Noroeste 0 -- -- 54
2020-09-07 07:00:00 18 9 Oeste 40 Oeste 0 -- -- 53
2020-09-07 06:00:00 18.6 17 Oeste 39 Oeste 0 -- -- 51
2020-09-07 05:00:00 19.2 21 Oeste 39 Oeste 0 -- -- 51
2020-09-07 04:00:00 19.4 15 Oeste 32 Sudoeste 0 -- -- 52
2020-09-07 03:00:00 19.7 18 Oeste 40 Oeste 0 -- -- 52
2020-09-07 02:00:00 20.3 16 Oeste 44 Oeste 0 -- -- 50
2020-09-07 01:00:00 21 19 Oeste 40 Oeste 0 -- -- 50
2020-09-07 00:00:00 22 17 Oeste 29 Sudoeste 0 -- -- 48
2020-09-06 23:00:00 22.8 14 Oeste 30 Oeste 0 -- -- 46
2020-09-06 22:00:00 23.9 5 Noroeste 21 Oeste 0 -- -- 46
2020-09-06 21:00:00 25.2 7 Noroeste 17 Oeste 0 -- -- 46
2020-09-06 20:00:00 26.5 8 Oeste 24 Oeste 0 -- -- 43
2020-09-06 19:00:00 28.3 13 Noroeste 28 Noroeste 0 -- -- 40
2020-09-06 18:00:00 29.6 13 Noroeste 24 Noroeste 0 -- -- 39
2020-09-06 17:00:00 29.9 15 Noroeste 27 Noroeste 0 -- -- 39
2020-09-06 16:00:00 30.6 9 Oeste 29 Noroeste 0 -- -- 38
2020-09-06 15:00:00 28.9 11 Noroeste 30 Noroeste 0 -- -- 41
2020-09-06 14:00:00 28.5 12 Oeste 29 Noroeste 0 -- -- 42
2020-09-06 13:00:00 26.6 16 Noroeste 32 Noroeste 0 -- -- 46
2020-09-06 12:00:00 25.6 15 Oeste 29 Sudoeste 0 -- -- 48
2020-09-06 11:00:00 24.2 13 Oeste 23 Oeste 0 -- -- 53
2020-09-06 10:00:00 22.6 13 Oeste 26 Oeste 0 -- -- 57
2020-09-06 09:00:00 21.2 12 Oeste 24 Oeste 0 -- -- 61
2020-09-06 08:00:00 19.9 10 Noroeste 19 Noroeste 0 -- -- 65
2020-09-06 07:00:00 19.7 8 Noroeste 20 Noroeste 0 -- -- 66
2020-09-06 06:00:00 20.6 10 Noroeste 24 Oeste 0 -- -- 64
2020-09-06 05:00:00 21.2 14 Oeste 30 Oeste 0 -- -- 62
2020-09-06 04:00:00 21.6 9 Noroeste 24 Oeste 0 -- -- 63
2020-09-06 03:00:00 22 13 Oeste 23 Oeste 0 -- -- 62
2020-09-06 02:00:00 21 9 Noroeste 20 Noroeste 0 -- -- 84
2020-09-06 01:00:00 20.6 3 Oeste 6 Sudoeste 0 -- -- 84
2020-09-06 00:00:00 22 4 Sur 21 Sur 0 -- -- 82
2020-09-05 23:00:00 22.5 12 Sur 18 Sur 0 -- -- 80
2020-09-05 22:00:00 23.1 8 Sur 19 Sudeste 0 -- -- 77
2020-09-05 21:00:00 24.1 10 Sudeste 26 Sudeste 0 -- -- 72
2020-09-05 20:00:00 25.6 15 Sudeste 35 Sudeste 0 -- -- 65
2020-09-05 19:00:00 27.4 16 Sudeste 33 Sudeste 0 -- -- 61
2020-09-05 18:00:00 29 18 Sudeste 34 Sudeste 0 -- -- 56
2020-09-05 17:00:00 29.7 18 Este 33 Este 0 -- -- 54
2020-09-05 16:00:00 30.2 17 Sudeste 30 Este 0 -- -- 53
2020-09-05 15:00:00 29.9 16 Este 28 Este 0 -- -- 54
2020-09-05 14:00:00 30.2 12 Sudeste 25 Este 0 -- -- 51
2020-09-05 13:00:00 29.6 8 Sudeste 22 Este 0 -- -- 52
2020-09-05 12:00:00 28.4 8 Sudeste 23 Sudeste 0 -- -- 56
2020-09-05 11:00:00 26.9 11 Este 22 Este 0 -- -- 61
2020-09-05 10:00:00 22.7 0 Calma 5 Norte 0 -- -- 78
2020-09-05 09:00:00 18.5 2 Noroeste 4 Oeste 0 -- -- 92
2020-09-05 08:00:00 16.5 0 Calma 5 Sur 0 -- -- 95
2020-09-05 07:00:00 16.3 0 Calma 5 Sudoeste 0 -- -- 93
2020-09-05 06:00:00 17 0 Calma 5 Este 0 -- -- 91
2020-09-05 05:00:00 18 0 Calma 8 Sur 0 -- -- 88
2020-09-05 04:00:00 20.3 6 Sudeste 15 Sudeste 0 -- -- 87
2020-09-05 03:00:00 20.6 8 Sur 15 Sur 0 -- -- 85
2020-09-05 02:00:00 20.7 9 Sur 17 Sur 0 -- -- 83
2020-09-05 01:00:00 21 9 Sur 16 Sudeste 0 -- -- 78
2020-09-05 00:00:00 21.1 10 Sur 17 Sur 0 -- -- 81
2020-09-04 23:00:00 21.6 9 Sur 16 Sudeste 0 -- -- 80
2020-09-04 22:00:00 22.5 8 Sur 18 Este 0 -- -- 76
2020-09-04 21:00:00 23.8 11 Sudeste 27 Sudeste 0 -- -- 70
2020-09-04 20:00:00 25.3 16 Sudeste 29 Sudeste 0 -- -- 62
2020-09-04 19:00:00 27 17 Sudeste 33 Sudeste 0 -- -- 57
2020-09-04 18:00:00 28 17 Sudeste 36 Sudeste 0 -- -- 56
2020-09-04 17:00:00 28.9 17 Sudeste 35 Sudeste 0 -- -- 54
2020-09-04 16:00:00 29.2 19 Este 37 Este 0 -- -- 52
2020-09-04 15:00:00 29.9 17 Sudeste 32 Sudeste 0 -- -- 50
2020-09-04 14:00:00 29.7 15 Sudeste 31 Sudeste 0 -- -- 50
2020-09-04 13:00:00 29.2 15 Sudeste 37 Este 0 -- -- 51
2020-09-04 12:00:00 28.2 16 Este 28 Sudeste 0 -- -- 52
2020-09-04 11:00:00 25.9 4 Sudoeste 12 Oeste 0 -- -- 59
2020-09-04 10:00:00 21.3 4 Norte 8 Noroeste 0 -- -- 76
2020-09-04 09:00:00 18 3 Norte 5 Noroeste 0 -- -- 88
2020-09-04 08:00:00 14.5 0 Calma 2 Oeste 0 -- -- 95
2020-09-04 07:00:00 14.8 0 Calma 6 Noroeste 0 -- -- 94
2020-09-04 06:00:00 15 0 Calma 5 Sur 0 -- -- 93
2020-09-04 05:00:00 15.3 0 Calma 4 Oeste 0 -- -- 92
2020-09-04 04:00:00 16.2 5 Oeste 6 Sudoeste 0 -- -- 90
2020-09-04 03:00:00 17.5 2 Sudoeste 6 Sur 0 -- -- 85
2020-09-04 02:00:00 19.9 5 Sur 11 Sur 0 -- -- 81
2020-09-04 01:00:00 20.5 6 Sur 13 Sur 0 -- -- 78
2020-09-04 00:00:00 20.7 9 Sur 14 Sudeste 0 -- -- 77
2020-09-03 23:00:00 21.3 7 Sur 12 Sudeste 0 -- -- 76
2020-09-03 22:00:00 22.2 6 Sur 15 Este 0 -- -- 74
2020-09-03 21:00:00 23.9 8 Sudeste 27 Sudeste 0 -- -- 69
2020-09-03 20:00:00 25.5 13 Sudeste 27 Este 0 -- -- 63
2020-09-03 19:00:00 27.2 17 Sudeste 35 Sudeste 0 -- -- 57
2020-09-03 18:00:00 28.2 19 Sudeste 38 Sudeste 0 -- -- 57
2020-09-03 17:00:00 29.1 19 Sudeste 37 Sudeste 0 -- -- 52
2020-09-03 16:00:00 29.7 18 Sudeste 34 Este 0 -- -- 50
2020-09-03 15:00:00 30.8 3 Sudoeste 18 Noroeste 0 -- -- 31
2020-09-03 14:00:00 29.2 6 Norte 18 Norte 0 -- -- 33
2020-09-03 13:00:00 27.2 7 Noroeste 15 Norte 0 -- -- 37
2020-09-03 12:00:00 24.9 6 Norte 17 Norte 0 -- -- 44
2020-09-03 11:00:00 22.4 6 Norte 16 Norte 0 -- -- 51
2020-09-03 10:00:00 19.5 4 Noroeste 9 Noroeste 0 -- -- 67
2020-09-03 09:00:00 16.1 4 Noroeste 8 Noroeste 0 -- -- 86
2020-09-03 08:00:00 12.4 0 Calma 5 Sudeste 0 -- -- 93
2020-09-03 07:00:00 12.6 0 Calma 4 Oeste 0 -- -- 90
2020-09-03 06:00:00 13.5 0 Calma 4 Sudoeste 0 -- -- 93
2020-09-03 05:00:00 14.3 0 Calma 6 Sudoeste 0 -- -- 93
2020-09-03 04:00:00 15.1 3 Oeste 6 Sudoeste 0 -- -- 93
2020-09-03 03:00:00 15.8 0 Calma 5 Noroeste 0 -- -- 89
2020-09-03 02:00:00 16.7 4 Sudoeste 6 Sur 0 -- -- 89
2020-09-03 01:00:00 17.5 3 Sur 9 Sur 0 -- -- 84
2020-09-03 00:00:00 18.6 6 Sudeste 8 Sur 0 -- -- 82
2020-09-02 23:00:00 20.1 6 Sur 10 Sudeste 0 -- -- 77
2020-09-02 22:00:00 21.4 6 Sur 17 Sudeste 0 -- -- 74
2020-09-02 21:00:00 22.7 8 Sudeste 28 Este 0 -- -- 69
2020-09-02 20:00:00 24.3 14 Sudeste 28 Sudeste 0 -- -- 64
2020-09-02 19:00:00 26 16 Sudeste 33 Este 0 -- -- 57
2020-09-02 18:00:00 27.3 15 Sudeste 39 Este 0 -- -- 50
2020-09-02 17:00:00 27.5 19 Este 33 Este 0 -- -- 47
2020-09-02 16:00:00 29 15 Sudeste 29 Sudeste 0 -- -- 43
2020-09-02 15:00:00 29 9 Noroeste 24 Oeste 0 -- -- 32
2020-09-02 14:00:00 28 7 Noroeste 23 Oeste 0 -- -- 33
2020-09-02 13:00:00 26.2 9 Noroeste 29 Sudoeste 0 -- -- 39
2020-09-02 12:00:00 25.5 11 Sudoeste 23 Oeste 0 -- -- 42
2020-09-02 11:00:00 23.5 13 Oeste 28 Oeste 0 -- -- 47
2020-09-02 10:00:00 21.6 14 Oeste 31 Sudoeste 0 -- -- 52
2020-09-02 09:00:00 18 7 Noroeste 16 Norte 0 -- -- 68
2020-09-02 08:00:00 15.6 8 Noroeste 12 Norte 0 -- -- 75
2020-09-02 07:00:00 15.8 8 Noroeste 12 Norte 0 -- -- 71
2020-09-02 06:00:00 15.8 5 Noroeste 11 Norte 0 -- -- 73
2020-09-02 05:00:00 16.5 5 Noroeste 12 Oeste 0 -- -- 76
2020-09-02 04:00:00 16 2 Sur 7 Sudeste 0 -- -- 89
2020-09-02 03:00:00 18.2 6 Oeste 15 Sudoeste 0 -- -- 82
2020-09-02 02:00:00 16.5 0 Calma 5 Sudoeste 0 -- -- 89
2020-09-02 01:00:00 17.8 2 Oeste 6 Sur 0 -- -- 87
2020-09-02 00:00:00 19.6 6 Sudeste 9 Sudoeste 0 -- -- 82
2020-09-01 23:00:00 20.4 4 Sudoeste 6 Sudoeste 0 -- -- 81
2020-09-01 22:00:00 21.8 5 Sudoeste 6 Sudoeste 0 -- -- 76
2020-09-01 21:00:00 23.3 2 Sudeste 14 Sudeste 0 -- -- 72
2020-09-01 20:00:00 24 9 Sudeste 18 Sudeste 0 -- -- 69
2020-09-01 19:00:00 24.5 11 Sudeste 25 Sudeste 0 -- -- 66
2020-09-01 18:00:00 25.3 14 Sudeste 28 Sudeste 0 -- -- 61
2020-09-01 17:00:00 26.6 11 Sudeste 28 Este 0 -- -- 54
2020-09-01 16:00:00 27.4 11 Este 21 Este 0 -- -- 50
2020-09-01 15:00:00 27.2 9 Sudeste 22 Sudeste 0 -- -- 47
2020-09-01 14:00:00 27 9 Este 18 Sudeste 0 -- -- 46
2020-09-01 13:00:00 26.5 4 Este 13 Oeste 0 -- -- 40
2020-09-01 12:00:00 24.4 4 Nordeste 13 Noroeste 0 -- -- 41
2020-09-01 11:00:00 22 5 Norte 13 Noroeste 0 -- -- 50
2020-09-01 10:00:00 18 2 Norte 5 Norte 0 -- -- 66
2020-09-01 09:00:00 15.1 0 Calma 3 Noroeste 0 -- -- 80
2020-09-01 08:00:00 12.7 0 Calma 6 Noroeste 0 -- -- 88
2020-09-01 07:00:00 12.2 3 Oeste 5 Oeste 0 -- -- 84
2020-09-01 06:00:00 13 0 Calma 5 Oeste 0 -- -- 81
2020-09-01 05:00:00 14 4 Sur 8 Sudeste 0 -- -- 79
2020-09-01 04:00:00 15.2 5 Sudeste 6 Oeste 0 -- -- 75
2020-09-01 03:00:00 15.8 5 Oeste 6 Oeste 0 -- -- 74
2020-09-01 02:00:00 16 3 Oeste 5 Noroeste 0 -- -- 74
2020-09-01 01:00:00 17.5 0 Calma 5 Norte 0 -- -- 68
2020-09-01 00:00:00 18.1 3 Oeste 6 Oeste 0 -- -- 65
2020-08-31 23:00:00 18.7 3 Sur 8 Sur 0 -- -- 63
2020-08-31 22:00:00 20 6 Sur 11 Sur 0 -- -- 60
2020-08-31 21:00:00 21.3 8 Sudeste 21 Este 0 -- -- 57
2020-08-31 20:00:00 23.3 14 Sudeste 27 Sudeste 0 -- -- 51
2020-08-31 19:00:00 25.5 17 Sudeste 26 Sudeste 0 -- -- 44
2020-08-31 18:00:00 27.3 12 Sudeste 26 Sudeste 0 -- -- 36
2020-08-31 17:00:00 28.7 6 Este 30 Oeste 0 -- -- 32
2020-08-31 16:00:00 27.5 9 Norte 24 Norte 0 -- -- 29
2020-08-31 15:00:00 26.5 10 Norte 26 Noroeste 0 -- -- 32
2020-08-31 14:00:00 25.2 13 Noroeste 26 Noroeste 0 -- -- 34
2020-08-31 13:00:00 23.9 13 Noroeste 33 Noroeste 0 -- -- 38
2020-08-31 12:00:00 22.3 20 Noroeste 34 Noroeste 0 -- -- 43
2020-08-31 11:00:00 20.9 13 Oeste 30 Oeste 0 -- -- 47
2020-08-31 10:00:00 18.9 10 Noroeste 27 Oeste 0 -- -- 53
2020-08-31 09:00:00 17.3 6 Noroeste 18 Oeste 0 -- -- 57
2020-08-31 08:00:00 16.2 13 Oeste 24 Oeste 0 -- -- 59
2020-08-31 07:00:00 15.7 10 Oeste 23 Oeste 0 -- -- 60
2020-08-31 06:00:00 15.5 8 Oeste 17 Oeste 0 -- -- 60
2020-08-31 05:00:00 16 9 Noroeste 19 Oeste 0 -- -- 59
2020-08-31 04:00:00 16.4 10 Noroeste 28 Oeste 0 -- -- 57
2020-08-31 03:00:00 17.4 10 Noroeste 33 Oeste 0 -- -- 54
2020-08-31 02:00:00 17.8 8 Oeste 27 Oeste 0 -- -- 53
2020-08-31 01:00:00 18.8 17 Oeste 32 Sudoeste 0 -- -- 51
2020-08-31 00:00:00 19.7 15 Sudoeste 29 Sudoeste 0 -- -- 47
2020-08-30 23:00:00 20.3 10 Oeste 29 Oeste 0 -- -- 45
2020-08-30 22:00:00 20.6 13 Oeste 23 Oeste 0 -- -- 45
2020-08-30 21:00:00 21.5 9 Oeste 28 Oeste 0 -- -- 42
2020-08-30 20:00:00 22.9 13 Oeste 32 Oeste 0 -- -- 40
2020-08-30 19:00:00 24.4 14 Oeste 36 Noroeste 0 -- -- 36
2020-08-30 18:00:00 25.4 15 Oeste 36 Noroeste 0 -- -- 33
2020-08-30 17:00:00 25.2 19 Noroeste 33 Oeste 0 -- -- 35
2020-08-30 16:00:00 25.5 19 Oeste 41 Oeste 0 -- -- 35
2020-08-30 15:00:00 24.5 21 Oeste 44 Oeste 0 -- -- 37
2020-08-30 14:00:00 23.6 19 Oeste 44 Oeste 0 -- -- 39
2020-08-30 13:00:00 22.3 20 Noroeste 49 Noroeste 0 -- -- 43
2020-08-30 12:00:00 21.4 24 Noroeste 43 Noroeste 0 -- -- 44
2020-08-30 11:00:00 20.2 19 Noroeste 46 Sudoeste 0 -- -- 48
2020-08-30 10:00:00 18.6 21 Oeste 48 Oeste 0 -- -- 51
2020-08-30 09:00:00 17 17 Oeste 41 Oeste 0 -- -- 55
2020-08-30 08:00:00 16.2 19 Oeste 40 Oeste 0 -- -- 56
2020-08-30 07:00:00 15.9 17 Oeste 41 Noroeste 0 -- -- 58
2020-08-30 06:00:00 15.9 8 Oeste 44 Sudoeste 0 -- -- 58
2020-08-30 05:00:00 16.5 24 Oeste 51 Sudoeste 0 -- -- 57
2020-08-30 04:00:00 16.8 27 Oeste 48 Oeste 0 -- -- 60
2020-08-30 03:00:00 17.5 21 Oeste 43 Oeste 0 -- -- 60
2020-08-30 02:00:00 18 21 Oeste 40 Noroeste 0 -- -- 59
2020-08-30 01:00:00 18.8 22 Oeste 45 Oeste 0 -- -- 55
2020-08-30 00:00:00 19.7 20 Oeste 57 Oeste 0 -- -- 52
2020-08-29 23:00:00 20.4 20 Oeste 45 Oeste 0 -- -- 49
2020-08-29 22:00:00 21.7 18 Oeste 41 Oeste 0 -- -- 45
2020-08-29 21:00:00 23.4 14 Oeste 31 Oeste 0 -- -- 38
2020-08-29 20:00:00 24.5 10 Oeste 30 Oeste 0 -- -- 35
2020-08-29 19:00:00 26.2 17 Oeste 40 Noroeste 0 -- -- 32
2020-08-29 18:00:00 25.9 13 Noroeste 34 Noroeste 0 -- -- 36
2020-08-29 17:00:00 26.4 15 Noroeste 34 Noroeste 0 -- -- 35
2020-08-29 16:00:00 23.4 12 Oeste 33 Oeste 0 -- -- 45
2020-08-29 15:00:00 23 13 Noroeste 36 Noroeste 0 -- -- 45
2020-08-29 14:00:00 24.1 22 Noroeste 39 Noroeste 0 -- -- 41
2020-08-29 13:00:00 21.8 13 Oeste 48 Noroeste 0 -- -- 48
2020-08-29 12:00:00 20.7 17 Noroeste 36 Oeste 0 -- -- 51
2020-08-29 11:00:00 19.9 15 Noroeste 33 Sudoeste 0 -- -- 53
2020-08-29 10:00:00 19.4 11 Noroeste 30 Oeste 0 -- -- 54
2020-08-29 09:00:00 18.9 13 Oeste 26 Oeste 0 -- -- 54
2020-08-29 08:00:00 19.2 15 Oeste 32 Noroeste 0 -- -- 54
2020-08-29 07:00:00 19.3 10 Noroeste 25 Oeste 0 -- -- 55
2020-08-29 06:00:00 19.4 8 Oeste 28 Oeste 0 -- -- 56
2020-08-29 05:00:00 19.6 13 Noroeste 34 Noroeste 0 -- -- 57
2020-08-29 04:00:00 19.9 11 Noroeste 28 Oeste 0 -- -- 56
2020-08-29 03:00:00 20.2 14 Noroeste 26 Oeste 0 -- -- 58
2020-08-29 02:00:00 20.5 15 Oeste 31 Oeste 0 -- -- 59
2020-08-29 01:00:00 21.2 16 Oeste 32 Oeste 0 -- -- 58
2020-08-29 00:00:00 22.1 10 Noroeste 32 Oeste 0 -- -- 60
2020-08-28 23:00:00 23 15 Oeste 39 Sudoeste 0 -- -- 58
2020-08-28 22:00:00 22.7 10 Oeste 21 Oeste 0 -- -- 68
2020-08-28 21:00:00 22.7 6 Nordeste 27 Sudoeste 0 -- -- 83
2020-08-28 20:00:00 23.4 8 Sudoeste 33 Sur 1 -- -- 85
2020-08-28 19:00:00 27.2 11 Sudeste 21 Sudeste 0 -- -- 75
2020-08-28 18:00:00 27.5 17 Sudeste 27 Sudeste 0 -- -- 72
2020-08-28 17:00:00 29 18 Sudeste 30 Sudeste 0 -- -- 67
2020-08-28 16:00:00 29.5 13 Sudeste 26 Sudeste 0 -- -- 65
2020-08-28 15:00:00 30.5 11 Sudeste 19 Este 0 -- -- 61
2020-08-28 14:00:00 29.7 4 Norte 13 Norte 0 -- -- 64
2020-08-28 13:00:00 28.5 7 Norte 14 Sudeste 0 -- -- 67
2020-08-28 12:00:00 28.9 9 Sudeste 17 Sudeste 0 -- -- 67
2020-08-28 11:00:00 27.1 5 Sudeste 16 Sudeste 0 -- -- 74
2020-08-28 10:00:00 26.7 3 Sur 12 Sur 0 -- -- 78
2020-08-28 09:00:00 25.9 9 Sudeste 15 Sudeste 0 -- -- 83
2020-08-28 08:00:00 24.6 5 Sur 14 Sudeste 0 -- -- 86
2020-08-28 07:00:00 24.8 8 Sudeste 15 Sudeste 0 -- -- 87
2020-08-28 06:00:00 24.7 7 Sur 12 Sudeste 0 -- -- 88
2020-08-28 05:00:00 24.6 7 Sudeste 18 Sudeste 0 -- -- 88
2020-08-28 04:00:00 24.9 8 Sudeste 18 Sudeste 0 -- -- 87
2020-08-28 03:00:00 25.1 9 Sudeste 15 Sudeste 0 -- -- 87
2020-08-28 02:00:00 25.1 8 Sudeste 15 Sudeste 0 -- -- 89
2020-08-28 01:00:00 24.7 9 Sudeste 14 Sudeste 0 -- -- 91
2020-08-28 00:00:00 24.9 6 Sudeste 14 Sudeste 0 -- -- 89